Time;durP1;ratioP1;P1;durP2;ratioP2;P2;SDS_P1;SDS_P2;PMS_P1;PMS_P2;Temp;Humidity;BMP_temperature;BMP_pressure;BME280_temperature;BME280_humidity;BME280_pressure;Samples;Min_cycle;Max_cycle;Signal;HPM_P1;HPM_P2
2022/05/04 00:02:17;;;;;;;9.57;3.33;;;;;;;-142.75;100.00;78125.69;5041346;28;20021;-66
2022/05/04 00:04:43;;;;;;;7.43;2.92;;;;;;;-142.75;100.00;78115.84;5043846;28;20021;-66
2022/05/04 00:07:08;;;;;;;7.60;3.47;;;;;;;-142.75;100.00;78123.72;5041605;28;20107;-66
2022/05/04 00:09:33;;;;;;;10.10;3.45;;;;;;;-142.75;100.00;78129.63;5041795;28;20478;-66
2022/05/04 00:11:58;;;;;;;6.47;2.75;;;;;;;-142.75;100.00;78121.75;5041320;28;20037;-66
2022/05/04 00:14:25;;;;;;;8.07;3.42;;;;;;;-142.75;100.00;78127.66;5041641;28;20032;-66
2022/05/04 00:16:51;;;;;;;7.15;3.30;;;;;;;-142.75;100.00;78121.75;5043793;28;20099;-66
2022/05/04 00:19:17;;;;;;;10.02;3.33;;;;;;;-142.75;100.00;78121.75;5043813;28;20060;-66
2022/05/04 00:21:42;;;;;;;13.02;4.00;;;;;;;-142.75;100.00;78121.75;5041368;28;20048;-66
2022/05/04 00:24:07;;;;;;;8.35;3.58;;;;;;;-142.75;100.00;78121.75;5041102;28;20027;-67
2022/05/04 00:26:33;;;;;;;10.02;3.63;;;;;;;-142.75;100.00;78115.84;5043518;28;20417;-67
2022/05/04 00:28:58;;;;;;;7.07;3.63;;;;;;;-142.75;100.00;78109.94;5043099;28;20500;-66
2022/05/04 00:31:24;;;;;;;8.55;3.53;;;;;;;-142.75;100.00;78109.94;5040843;28;20040;-66
2022/05/04 00:33:49;;;;;;;10.95;3.28;;;;;;;-142.75;100.00;78109.94;5040178;28;20029;-66
2022/05/04 00:36:14;;;;;;;7.95;3.25;;;;;;;-142.75;100.00;78117.81;5041055;28;20075;-66
2022/05/04 00:38:39;;;;;;;6.53;3.70;;;;;;;-142.75;100.00;78107.97;5040898;28;20056;-66
2022/05/04 00:41:05;;;;;;;9.82;3.38;;;;;;;-142.75;100.00;78106.00;5043243;28;20021;-66
2022/05/04 00:43:30;;;;;;;7.05;3.13;;;;;;;-142.75;100.00;78106.00;5042716;28;20021;-66
2022/05/04 00:45:55;;;;;;;10.15;3.50;;;;;;;-142.75;100.00;78102.06;5042525;28;20497;-66
2022/05/04 00:48:21;;;;;;;7.13;3.47;;;;;;;-142.75;100.00;78100.09;5042906;28;20017;-66
2022/05/04 00:50:48;;;;;;;8.35;3.67;;;;;;;-142.75;100.00;78096.16;5040562;28;20351;-66
2022/05/04 00:53:13;;;;;;;12.50;3.05;;;;;;;-142.75;100.00;78106.00;5042322;28;20033;-66
2022/05/04 00:55:39;;;;;;;6.97;2.92;;;;;;;-142.75;100.00;78102.06;5042424;28;20324;-66
2022/05/04 01:00:51;;;;;;;6.70;3.23;;;;;;;-142.75;100.00;78096.16;5043862;28;20048;-66
2022/05/04 01:03:17;;;;;;;9.67;3.23;;;;;;;-142.75;100.00;78106.00;5041977;28;20017;-66
2022/05/04 01:05:43;;;;;;;;;;;;;;;-142.75;100.00;78102.06;5043476;28;20021;-66
2022/05/04 01:08:09;;;;;;;6.03;2.67;;;;;;;-142.75;100.00;78098.13;5041347;28;19958;-67
2022/05/04 01:10:34;;;;;;;6.13;3.15;;;;;;;-142.75;100.00;78106.00;5042277;28;20039;-66
2022/05/04 01:12:59;;;;;;;8.90;2.92;;;;;;;-142.75;100.00;78106.00;5040575;28;20123;-66
2022/05/04 01:15:25;;;;;;;9.60;3.17;;;;;;;-142.75;100.00;78102.06;5039069;28;20021;-67
2022/05/04 01:17:51;;;;;;;7.20;2.78;;;;;;;-142.75;100.00;78107.97;5042926;28;20024;-66
2022/05/04 01:20:18;;;;;;;7.18;3.53;;;;;;;-142.75;100.00;78102.06;5042394;28;20504;-66
2022/05/04 01:22:44;;;;;;;7.10;3.40;;;;;;;-142.75;100.00;78107.97;5041759;28;20024;-67
2022/05/04 01:25:11;;;;;;;6.05;2.90;;;;;;;-142.75;100.00;78106.00;5041659;28;20032;-66
2022/05/04 01:27:36;;;;;;;6.35;3.05;;;;;;;-142.75;100.00;78113.88;5041352;28;20021;-65
2022/05/04 01:30:03;;;;;;;7.10;2.92;;;;;;;-142.75;100.00;78119.78;5040847;28;20028;-67
2022/05/04 01:32:29;;;;;;;11.50;3.47;;;;;;;-142.75;100.00;78115.84;5043791;28;20044;-66
2022/05/04 01:34:54;;;;;;;6.53;2.67;;;;;;;-142.75;100.00;78123.72;5042921;28;20033;-66
2022/05/04 01:37:19;;;;;;;7.78;2.67;;;;;;;-142.75;100.00;78117.81;5041010;28;20433;-66
2022/05/04 01:39:44;;;;;;;9.52;3.65;;;;;;;-142.75;100.00;78117.81;5041747;28;20035;-66
2022/05/04 01:42:23;;;;;;;10.38;3.45;;;;;;;-142.75;100.00;78121.75;5042019;28;20024;-67
2022/05/04 01:44:49;;;;;;;7.30;2.67;;;;;;;-142.75;100.00;78115.84;5042548;28;20032;-67
2022/05/04 01:47:14;;;;;;;6.68;2.92;;;;;;;-142.75;100.00;78119.78;5041850;28;20025;-66
2022/05/04 01:49:39;;;;;;;7.18;3.83;;;;;;;-142.75;100.00;78113.88;5041909;28;20024;-66
2022/05/04 01:52:06;;;;;;;6.82;3.03;;;;;;;-142.75;100.00;78117.81;5042467;28;20040;-66
2022/05/04 01:54:31;;;;;;;;;;;;;;;-142.75;100.00;78121.75;5042285;28;20029;-65
2022/05/04 01:56:56;;;;;;;5.93;3.40;;;;;;;-142.75;100.00;78127.66;5042592;28;19921;-66
2022/05/04 01:59:21;;;;;;;7.85;3.17;;;;;;;-142.75;100.00;78125.69;5039980;28;20524;-66
2022/05/04 02:01:47;;;;;;;4.75;2.47;;;;;;;-142.75;100.00;78125.69;5039381;28;20107;-66
2022/05/04 02:04:14;;;;;;;10.95;3.45;;;;;;;-142.75;100.00;78129.63;5041968;28;20079;-66
2022/05/04 02:06:39;;;;;;;5.18;2.88;;;;;;;-142.75;100.00;78145.38;5039808;28;20024;-66
2022/05/04 02:09:06;;;;;;;5.97;3.22;;;;;;;-142.75;100.00;78141.44;5038445;28;20025;-65
2022/05/04 02:11:32;;;;;;;11.40;3.07;;;;;;;-142.75;100.00;78153.25;5041963;28;20075;-66
2022/05/04 02:13:58;;;;;;;6.70;3.40;;;;;;;-142.75;100.00;78163.09;5041990;28;20104;-66
2022/05/04 02:16:23;;;;;;;;;;;;;;;-142.75;100.00;78184.78;5040470;28;20071;-66
2022/05/04 02:18:49;;;;;;;4.83;3.00;;;;;;;-142.75;100.00;78186.75;5042424;28;20360;-66
2022/05/04 02:21:14;;;;;;;5.25;3.03;;;;;;;-142.75;100.00;78198.56;5038073;28;20040;-66
2022/05/04 02:23:39;;;;;;;7.13;3.22;;;;;;;-142.75;100.00;78210.38;5042250;28;20082;-66
2022/05/04 02:26:04;;;;;;;5.20;3.23;;;;;;;-142.75;100.00;78214.31;5041673;28;20060;-66
2022/05/04 02:28:30;;;;;;;5.00;2.85;;;;;;;-142.75;100.00;78224.16;5041250;28;20276;-66
2022/05/04 02:30:55;;;;;;;6.70;2.95;;;;;;;-142.75;100.00;78247.78;5042829;28;20107;-66
2022/05/04 02:33:21;;;;;;;6.47;3.08;;;;;;;-142.75;100.00;78253.69;5042699;28;20021;-66
2022/05/04 02:38:30;;;;;;;7.57;3.17;;;;;;;-142.75;100.00;78226.13;5040258;28;20045;-66
2022/05/04 02:40:55;;;;;;;6.55;3.20;;;;;;;-142.75;100.00;78241.88;5040811;28;20413;-66
2022/05/04 02:43:21;;;;;;;5.18;2.97;;;;;;;-142.75;100.00;78259.59;5041024;28;20405;-66
2022/05/04 02:45:46;;;;;;;5.45;2.85;;;;;;;-142.75;100.00;78251.72;5040026;28;20025;-66
2022/05/04 02:48:11;;;;;;;6.45;2.97;;;;;;;-142.75;100.00;78253.69;5040324;28;20141;-66
2022/05/04 02:50:37;;;;;;;11.13;3.47;;;;;;;-142.75;100.00;78255.66;5041472;28;20052;-66
2022/05/04 02:53:07;;;;;;;10.00;4.00;;;;;;;-142.75;100.00;78259.59;5044482;28;20033;-66
2022/05/04 02:55:32;;;;;;;7.70;2.77;;;;;;;-142.75;100.00;78251.72;5044322;28;20033;-66
2022/05/04 02:57:58;;;;;;;5.97;2.78;;;;;;;-142.75;100.00;78279.28;5041862;28;20102;-66
2022/05/04 03:00:24;;;;;;;10.82;3.47;;;;;;;-142.75;100.00;78279.28;5043324;28;20033;-66
2022/05/04 03:02:50;;;;;;;8.10;3.13;;;;;;;-142.75;100.00;78279.28;5038750;28;20483;-66
2022/05/04 03:05:16;;;;;;;6.35;2.63;;;;;;;-142.75;100.00;78289.13;5043588;28;20060;-66
2022/05/04 03:07:42;;;;;;;9.38;3.88;;;;;;;-142.75;100.00;78297.00;5041638;28;20053;-66
2022/05/04 03:10:08;;;;;;;7.43;3.30;;;;;;;-142.75;100.00;78299.00;5042201;28;20471;-66
2022/05/04 03:12:33;;;;;;;7.87;3.00;;;;;;;-142.75;100.00;78291.09;5043552;28;20028;-66
2022/05/04 03:14:59;;;;;;;8.55;3.45;;;;;;;-142.75;100.00;78291.09;5043799;28;20044;-67
2022/05/04 03:17:25;;;;;;;5.80;3.00;;;;;;;-142.75;100.00;78295.06;5042020;28;20025;-66
2022/05/04 03:19:52;;;;;;;6.10;3.20;;;;;;;-142.75;100.00;78293.06;5041402;28;20483;-67
2022/05/04 03:22:17;;;;;;;6.77;2.80;;;;;;;-142.75;100.00;78308.84;5043803;28;20016;-66
2022/05/04 03:24:42;;;;;;;5.15;3.40;;;;;;;-142.75;100.00;78322.63;5043488;28;20036;-67
2022/05/04 03:27:08;;;;;;;5.43;3.23;;;;;;;-142.75;100.00;78326.56;5043044;28;20021;-67
2022/05/04 03:29:34;;;;;;;6.50;2.75;;;;;;;-142.75;100.00;78318.69;5043064;28;20268;-66
2022/05/04 03:31:59;;;;;;;7.75;3.05;;;;;;;-142.75;100.00;78332.47;5046069;28;20028;-67
2022/05/04 03:34:25;;;;;;;8.30;3.38;;;;;;;-142.75;100.00;78342.31;5042923;28;20103;-66
2022/05/04 03:36:50;;;;;;;;;;;;;;;-142.75;100.00;78346.25;5042525;28;20024;-66
2022/05/04 03:39:16;;;;;;;8.77;3.37;;;;;;;-142.75;100.00;78350.19;5043534;28;19917;-66
2022/05/04 03:41:41;;;;;;;5.13;3.20;;;;;;;-142.75;100.00;78352.16;5041312;28;20040;-66
2022/05/04 03:44:06;;;;;;;;;;;;;;;-142.75;100.00;78362.00;5025855;22;1036657;-64
2022/05/04 03:46:46;;;;;;;9.80;3.97;;;;;;;-142.75;100.00;78360.03;5048374;28;19920;-65
2022/05/04 03:49:13;;;;;;;8.50;3.30;;;;;;;-142.75;100.00;78360.03;5049759;28;20029;-66
2022/05/04 03:51:39;;;;;;;5.47;3.23;;;;;;;-142.75;100.00;78350.19;5048746;28;20021;-64
2022/05/04 03:54:05;;;;;;;6.88;3.40;;;;;;;-142.75;100.00;78365.94;5052502;28;20132;-65
2022/05/04 03:56:30;;;;;;;7.68;3.58;;;;;;;-142.75;100.00;78373.81;5063608;28;20045;-66
2022/05/04 03:58:56;;;;;;;9.02;2.95;;;;;;;-142.75;100.00;78375.78;5063343;28;20052;-66
2022/05/04 04:01:21;;;;;;;10.68;3.70;;;;;;;-142.75;100.00;78367.91;5062699;28;20031;-66
2022/05/04 04:03:47;;;;;;;9.60;3.80;;;;;;;-142.75;100.00;78373.81;5064836;28;20485;-65
2022/05/04 04:06:12;;;;;;;8.90;3.70;;;;;;;-142.75;100.00;78377.75;5064041;28;20047;-66
2022/05/04 04:08:38;;;;;;;6.25;3.47;;;;;;;-142.75;100.00;78379.72;5062359;28;20053;-65
2022/05/04 04:11:03;;;;;;;9.70;3.50;;;;;;;-142.75;100.00;78371.84;5061715;28;20025;-65
2022/05/04 04:13:30;;;;;;;6.38;3.47;;;;;;;-142.75;100.00;78360.03;5060132;28;20476;-66
2022/05/04 04:15:56;;;;;;;8.63;3.63;;;;;;;-142.75;100.00;78352.16;5061386;28;20036;-65
2022/05/04 04:18:23;;;;;;;11.18;3.55;;;;;;;-142.75;100.00;78352.16;5064267;28;20029;-66
2022/05/04 04:23:33;;;;;;;5.70;3.10;;;;;;;-142.75;100.00;78373.81;5064331;28;20536;-66
2022/05/04 04:25:59;;;;;;;6.90;3.33;;;;;;;-142.75;100.00;78387.59;5062760;28;20048;-66
2022/05/04 04:28:25;;;;;;;9.02;3.20;;;;;;;-142.75;100.00;78385.63;5062564;28;20023;-66
2022/05/04 04:30:51;;;;;;;6.68;3.67;;;;;;;-142.75;100.00;78379.72;5063230;28;20031;-65
2022/05/04 04:33:16;;;;;;;7.97;3.85;;;;;;;-142.75;100.00;78369.88;5061484;28;20025;-66
2022/05/04 04:35:41;;;;;;;12.47;4.33;;;;;;;-142.75;100.00;78354.13;5062622;28;20020;-66
2022/05/04 04:38:07;;;;;;;9.15;4.07;;;;;;;-142.75;100.00;78352.16;5062352;28;20107;-66
2022/05/04 04:40:33;;;;;;;7.82;3.90;;;;;;;-142.75;100.00;78367.91;5064194;28;20052;-65
2022/05/04 04:43:00;;;;;;;8.35;2.92;;;;;;;-142.75;100.00;78381.69;5062786;28;20524;-66
2022/05/04 04:45:26;;;;;;;9.37;3.60;;;;;;;-142.75;100.00;78377.75;5062123;28;20028;-65
2022/05/04 04:47:52;;;;;;;10.60;3.33;;;;;;;-142.75;100.00;78371.84;5061093;28;20564;-66
2022/05/04 04:50:17;;;;;;;10.40;3.47;;;;;;;-142.75;100.00;78362.00;5060877;28;20036;-65
2022/05/04 04:52:42;;;;;;;7.05;3.33;;;;;;;-142.75;100.00;78367.91;5052288;28;20274;-66
2022/05/04 04:55:08;;;;;;;5.47;2.87;;;;;;;-142.75;100.00;78369.88;5048857;28;20024;-66
2022/05/04 04:57:33;;;;;;;5.88;3.60;;;;;;;-142.75;100.00;78360.03;5048774;28;20299;-66
2022/05/04 04:59:59;;;;;;;7.35;3.35;;;;;;;-142.75;100.00;78346.25;5049438;28;20137;-66
2022/05/04 05:02:24;;;;;;;7.75;3.10;;;;;;;-142.75;100.00;78330.50;5053072;28;20048;-66
2022/05/04 05:04:50;;;;;;;5.35;3.25;;;;;;;-142.75;100.00;78310.81;5050354;28;20064;-66
2022/05/04 05:07:15;;;;;;;8.90;2.90;;;;;;;-142.75;100.00;78304.91;5048347;28;20045;-66
2022/05/04 05:09:40;;;;;;;4.95;2.70;;;;;;;-142.75;100.00;78295.06;5049023;28;20080;-66
2022/05/04 05:12:06;;;;;;;6.28;3.28;;;;;;;-142.75;100.00;78287.16;5048721;28;20025;-66
2022/05/04 05:17:15;;;;;;;8.00;3.17;;;;;;;-142.75;100.00;78271.41;5062917;28;20043;-66
2022/05/04 05:19:41;;;;;;;7.90;3.42;;;;;;;-142.75;100.00;78263.53;5060091;28;20028;-66
2022/05/04 05:22:06;;;;;;;10.83;4.70;;;;;;;-142.75;100.00;78253.69;5061122;28;20115;-66
2022/05/04 05:24:32;;;;;;;7.07;3.17;;;;;;;-142.75;100.00;78263.53;5060878;28;20279;-66
2022/05/04 05:26:57;;;;;;;17.40;4.55;;;;;;;-142.75;100.00;78255.66;5061656;28;20090;-66
2022/05/04 05:29:22;;;;;;;7.88;3.60;;;;;;;-142.75;100.00;78239.91;5061896;28;20036;-66
2022/05/04 05:31:47;;;;;;;8.80;5.43;;;;;;;-142.75;100.00;78243.84;5063080;28;20473;-66
2022/05/04 05:34:13;;;;;;;7.35;3.97;;;;;;;-142.75;100.00;78230.06;5064411;28;20024;-65
2022/05/04 05:36:39;;;;;;;9.20;4.25;;;;;;;-142.75;100.00;78196.59;5061343;28;20082;-65
2022/05/04 05:39:04;;;;;;;10.55;4.55;;;;;;;-142.75;100.00;78182.81;5061543;28;20042;-67
2022/05/04 05:41:31;;;;;;;10.52;4.30;;;;;;;-142.75;100.00;78161.13;5061611;28;20032;-66
2022/05/04 05:43:56;;;;;;;10.57;3.93;;;;;;;-142.75;100.00;78149.31;5059308;28;20557;-65
2022/05/04 05:46:21;;;;;;;9.93;4.60;;;;;;;-142.75;100.00;78133.56;5060076;28;20048;-65
2022/05/04 05:48:47;;;;;;;8.20;4.00;;;;;;;-142.75;100.00;78096.16;5060972;28;20012;-66
2022/05/04 05:51:13;;;;;;;10.60;4.43;;;;;;;-142.75;100.00;78086.31;5061587;28;20116;-66
2022/05/04 05:53:38;;;;;;;9.25;5.13;;;;;;;-142.75;100.00;78072.53;5061428;28;20032;-66
2022/05/04 05:56:04;;;;;;;12.05;4.38;;;;;;;-142.75;100.00;78058.72;5065264;28;20024;-65
2022/05/04 05:58:29;;;;;;;8.02;4.45;;;;;;;-142.75;100.00;78046.91;5047780;28;20091;-65
2022/05/04 06:00:54;;;;;;;8.30;4.00;;;;;;;-142.75;100.00;78031.16;5049556;28;20495;-65
2022/05/04 06:03:19;;;;;;;11.13;4.27;;;;;;;-142.75;100.00;78003.59;5048127;28;20021;-65
2022/05/04 06:05:45;;;;;;;7.80;4.50;;;;;;;-142.75;100.00;78007.53;5046148;28;20294;-65
2022/05/04 06:08:11;;;;;;;12.23;4.60;;;;;;;-142.75;100.00;77985.88;5047419;28;20275;-66
2022/05/04 06:10:37;;;;;;;6.80;4.00;;;;;;;-142.75;100.00;77981.94;5046959;28;20021;-64
2022/05/04 06:13:02;;;;;;;;;;;;;;;-142.75;100.00;77964.22;5050841;28;20021;-65
2022/05/04 06:15:27;;;;;;;8.00;4.50;;;;;;;-142.75;100.00;77948.47;5047277;28;20291;-66
2022/05/04 06:17:53;;;;;;;8.70;4.05;;;;;;;-142.75;100.00;77920.91;5047243;28;20033;-65
2022/05/04 06:20:18;;;;;;;7.65;3.65;;;;;;;-142.75;100.00;77899.22;5063943;28;20048;-65
2022/05/04 06:22:44;;;;;;;5.82;3.63;;;;;;;-142.75;100.00;77877.56;5049150;28;20032;-65
2022/05/04 06:25:09;;;;;;;9.15;3.90;;;;;;;-142.75;100.00;77877.56;5054786;28;20563;-65
2022/05/04 06:27:34;;;;;;;12.30;4.05;;;;;;;-142.75;100.00;77881.50;5064468;28;20548;-65
2022/05/04 06:35:27;;;;;;;10.80;3.95;;;;;;;-142.75;100.00;77822.44;5070847;28;20051;-65
2022/05/04 06:37:53;;;;;;;9.82;3.55;;;;;;;-142.75;100.00;77830.31;5071110;28;20029;-65
2022/05/04 06:40:20;;;;;;;14.55;3.47;;;;;;;-142.75;100.00;77814.56;5070707;28;20112;-65
2022/05/04 06:42:45;;;;;;;10.20;3.25;;;;;;;-142.75;100.00;77788.97;5068979;28;20032;-65
2022/05/04 06:45:11;;;;;;;13.27;3.45;;;;;;;-142.75;100.00;77777.16;5070575;28;20040;-65
2022/05/04 06:47:36;;;;;;;7.20;2.60;;;;;;;-142.75;100.00;77753.53;5053045;28;20024;-64
2022/05/04 06:50:03;;;;;;;9.23;3.00;;;;;;;-142.75;100.00;77741.72;5050841;28;20464;-67
2022/05/04 06:52:30;;;;;;;6.57;2.47;;;;;;;-142.75;100.00;77753.53;5050683;28;20438;-68
2022/05/04 06:54:55;;;;;;;9.50;2.60;;;;;;;-142.75;100.00;77731.88;5059321;28;20043;-65
2022/05/04 06:57:21;;;;;;;7.82;3.45;;;;;;;-142.75;100.00;77723.97;5057169;28;20033;-65
2022/05/04 06:59:46;;;;;;;7.45;3.40;;;;;;;-142.75;100.00;77702.31;5049245;28;20387;-65
2022/05/04 07:02:11;;;;;;;7.68;3.08;;;;;;;-142.75;100.00;77676.72;5049670;28;20076;-65
2022/05/04 07:04:37;;;;;;;11.00;2.60;;;;;;;-142.75;100.00;77678.69;5049179;28;20021;-65
2022/05/04 07:07:02;;;;;;;10.70;3.08;;;;;;;-142.75;100.00;77660.97;5061896;28;20374;-65
2022/05/04 07:09:27;;;;;;;10.05;2.75;;;;;;;-142.75;100.00;77657.03;5062683;28;20489;-65
2022/05/04 07:11:53;;;;;;;6.45;2.50;;;;;;;-142.75;100.00;77625.53;5064100;28;20031;-65
2022/05/04 07:14:19;;;;;;;5.90;2.17;;;;;;;-142.75;100.00;77613.72;5062211;28;20024;-65
2022/05/04 07:16:45;;;;;;;9.68;2.78;;;;;;;-142.75;100.00;77596.00;5062913;28;20081;-65
2022/05/04 07:19:10;;;;;;;12.93;3.40;;;;;;;-142.75;100.00;77538.91;5061431;28;20031;-65
2022/05/04 07:21:35;;;;;;;;;;;;;;;-142.75;100.00;77503.47;5064312;28;20033;-65
2022/05/04 07:24:00;;;;;;;8.98;2.83;;;;;;;-142.75;100.00;77546.78;5062995;28;19912;-65
2022/05/04 07:26:26;;;;;;;11.07;2.97;;;;;;;-142.75;100.00;77531.03;5069254;28;20117;-66
2022/05/04 07:28:51;;;;;;;;;;;;;;;-142.75;100.00;77527.09;5068248;28;20024;-65
2022/05/04 07:31:16;;;;;;;10.65;3.63;;;;;;;-142.75;100.00;77515.28;5064400;28;19912;-65
2022/05/04 07:33:41;;;;;;;9.35;3.33;;;;;;;-142.75;100.00;77485.75;5061234;28;20035;-65
2022/05/04 07:36:07;;;;;;;7.65;3.50;;;;;;;-142.75;100.00;77468.03;5063433;28;20392;-65
2022/05/04 07:38:32;;;;;;;;;;;;;;;-142.75;100.00;77452.25;5061364;28;20075;-66
2022/05/04 07:43:41;;;;;;;6.40;3.28;;;;;;;-142.75;100.00;77401.06;5061720;28;20038;-66
2022/05/04 07:46:06;;;;;;;11.23;3.42;;;;;;;-142.75;100.00;77369.56;5069188;28;20033;-66
2022/05/04 07:48:32;;;;;;;8.10;3.60;;;;;;;-142.75;100.00;77369.56;5071044;28;20047;-65
2022/05/04 07:50:57;;;;;;;;;;;;;;;-142.75;100.00;77334.13;5056090;28;20070;-66
2022/05/04 07:53:23;;;;;;;9.88;3.63;;;;;;;-142.75;100.00;77298.69;5059469;28;19920;-65
2022/05/04 07:55:48;;;;;;;;;;;;;;;-142.75;100.00;77324.28;5057851;28;20056;-66
2022/05/04 07:58:13;;;;;;;9.80;3.58;;;;;;;-142.75;100.00;77300.66;5055999;28;19916;-65
2022/05/04 08:06:06;;;;;;;12.65;4.55;;;;;;;-142.75;100.00;77275.06;5071240;28;20059;-66
2022/05/04 08:08:31;;;;;;;8.82;3.88;;;;;;;-142.75;100.00;77245.53;5063076;28;20060;-66
2022/05/04 08:10:57;;;;;;;9.45;4.18;;;;;;;-142.75;100.00;77217.97;5055689;28;20025;-66
2022/05/04 08:13:22;;;;;;;10.15;3.67;;;;;;;-142.75;100.00;77235.69;5053745;28;20483;-65
2022/05/04 08:15:47;;;;;;;9.60;4.22;;;;;;;-142.75;100.00;77235.69;5062636;28;20024;-66
2022/05/04 08:18:13;;;;;;;;;;;;;;;-142.75;100.00;77290.81;5064332;28;20032;-66
2022/05/04 08:20:38;;;;;;;13.07;4.30;;;;;;;-142.75;100.00;77239.63;5064300;28;19957;-65
2022/05/04 08:23:04;;;;;;;;;;;;;;;-142.75;100.00;77247.50;5064660;28;20043;-65
2022/05/04 08:25:31;;;;;;;12.25;4.30;;;;;;;-142.75;100.00;77235.69;5062236;28;19916;-66
2022/05/04 08:27:56;;;;;;;9.77;4.30;;;;;;;-142.75;100.00;77263.25;5062869;28;20060;-65
2022/05/04 08:30:23;;;;;;;16.50;4.80;;;;;;;-142.75;100.00;77253.41;5062454;28;20222;-65
2022/05/04 08:32:49;;;;;;;9.13;3.88;;;;;;;-142.75;100.00;77263.25;5061159;28;20478;-65
2022/05/04 08:35:15;;;;;;;7.95;3.80;;;;;;;-142.75;100.00;77273.09;5062206;28;20043;-66
2022/05/04 08:37:41;;;;;;;11.82;4.35;;;;;;;-142.75;100.00;77290.81;5051561;28;20028;-65
2022/05/04 08:40:08;;;;;;;10.48;4.32;;;;;;;-142.75;100.00;77288.84;5053594;28;20021;-65
2022/05/04 08:42:41;;;;;;;12.05;4.05;;;;;;;-142.75;100.00;77231.75;5061164;28;20052;-66
2022/05/04 08:45:09;;;;;;;10.30;4.38;;;;;;;-142.75;100.00;77214.03;5061428;28;20035;-66
2022/05/04 08:47:36;;;;;;;11.63;4.30;;;;;;;-142.75;100.00;77194.34;5057164;28;20021;-66
2022/05/04 08:50:02;;;;;;;6.63;3.95;;;;;;;-142.75;100.00;77219.94;5062474;28;20051;-66
2022/05/04 08:52:27;;;;;;;;;;;;;;;-142.75;100.00;77261.28;5061639;28;20089;-66
2022/05/04 08:54:54;;;;;;;12.80;4.13;;;;;;;-142.75;100.00;77243.56;5064900;28;20438;-66
2022/05/04 08:57:20;;;;;;;6.75;3.85;;;;;;;-142.75;100.00;77243.56;5062987;28;20169;-66
2022/05/04 08:59:46;;;;;;;7.63;4.07;;;;;;;-142.75;100.00;77239.63;5062633;28;20051;-66
2022/05/04 09:02:11;;;;;;;10.30;4.28;;;;;;;-142.75;100.00;77239.63;5064377;28;20032;-66
2022/05/04 09:04:41;;;;;;;;;;;;;;;-142.75;100.00;77190.41;5062770;28;20024;-66
2022/05/04 09:07:22;;;;;;;12.02;4.60;;;;;;;-142.75;98.16;77172.69;5064331;28;19912;-66
2022/05/04 09:09:48;;;;;;;12.07;4.53;;;;;;;-142.75;100.00;77188.44;5065122;28;20621;-66
2022/05/04 09:12:16;;;;;;;13.98;4.75;;;;;;;-142.75;98.83;77156.94;5061089;28;20115;-65
2022/05/04 09:14:43;;;;;;;11.10;4.20;;;;;;;-142.75;94.13;77151.03;5063745;28;20052;-66
2022/05/04 09:17:10;;;;;;;9.93;4.22;;;;;;;-142.75;97.12;77145.13;5062936;28;20044;-66
2022/05/04 09:19:35;;;;;;;12.18;5.03;;;;;;;-142.75;96.02;77133.31;5062266;28;20490;-66
2022/05/04 09:22:01;;;;;;;;;;;;;;;-142.75;93.94;77095.91;5064339;28;20032;-66
2022/05/04 09:24:27;;;;;;;9.05;4.75;;;;;;;-142.75;91.19;77078.19;5064446;28;19952;-66
2022/05/04 09:26:56;;;;;;;11.45;4.43;;;;;;;-142.75;96.74;77050.63;5064267;28;20056;-66
2022/05/04 09:29:32;;;;;;;8.13;4.40;;;;;;;-142.75;86.46;77050.63;5062329;28;20024;-66
2022/05/04 09:31:58;;;;;;;12.68;4.60;;;;;;;-142.75;85.23;77011.25;5062069;28;20034;-66
2022/05/04 09:34:33;;;;;;;;;;;;;;;-142.75;81.38;77007.31;5061217;28;20104;-66
2022/05/04 09:45:34;;;;;;;9.95;4.53;;;;;;;-142.75;80.80;76930.53;5068547;22;20047;-67
2022/05/04 09:47:59;;;;;;;;;;;;;;;-142.75;77.52;76965.97;5049378;28;20024;-66
2022/05/04 09:50:27;;;;;;;11.48;4.70;;;;;;;-142.75;79.87;76942.34;5050100;28;20024;-67
2022/05/04 09:52:57;;;;;;;10.05;3.90;;;;;;;-142.75;80.60;76936.44;5050386;28;20063;-67
2022/05/04 09:55:24;;;;;;;8.48;4.40;;;;;;;-142.75;74.81;76912.81;5057453;28;20073;-67
2022/05/04 09:57:54;;;;;;;10.07;4.35;;;;;;;-142.75;76.50;76879.34;5063683;28;20041;-66
2022/05/04 10:00:20;;;;;;;13.90;4.95;;;;;;;-142.75;75.99;76940.38;5067594;28;20587;-66
2022/05/04 10:02:49;;;;;;;12.45;5.25;;;;;;;-142.75;80.42;76942.34;5066020;28;20082;-66
2022/05/04 10:05:16;;;;;;;8.93;3.55;;;;;;;-142.75;75.28;76916.75;5068276;28;20565;-66
2022/05/04 10:07:42;;;;;;;14.70;4.43;;;;;;;-142.75;75.35;76883.28;5072832;28;20115;-67
2022/05/04 10:10:09;;;;;;;;;;;;;;;-142.75;72.66;76806.50;5075507;28;20125;-67
2022/05/04 10:12:38;;;;;;;9.77;3.75;;;;;;;-142.75;69.53;76814.38;5069151;28;20011;-67
2022/05/04 10:15:07;;;;;;;10.77;4.50;;;;;;;-142.75;70.77;76804.53;5069567;28;20038;-67
2022/05/04 10:17:35;;;;;;;10.70;4.05;;;;;;;-142.75;72.06;76838.00;5065917;28;20559;-68
2022/05/04 10:20:11;;;;;;;11.52;3.88;;;;;;;-142.75;68.40;76802.56;5067393;28;20831;-68
2022/05/04 10:22:38;;;;;;;10.43;4.13;;;;;;;-142.75;70.00;76832.09;5067854;28;20028;-67
2022/05/04 10:25:05;;;;;;;11.63;4.10;;;;;;;-142.75;77.40;76964.00;5065420;28;20585;-67
2022/05/04 10:27:30;;;;;;;7.10;3.63;;;;;;;-142.75;77.40;77009.28;5067572;28;20482;-66
2022/05/04 10:32:46;;;;;;;17.13;4.60;;;;;;;-142.75;79.99;76967.94;5067541;28;20093;-67
2022/05/04 10:35:20;;;;;;;9.63;3.97;;;;;;;-142.75;78.68;76887.22;5067265;28;20024;-67
2022/05/04 10:37:57;;;;;;;7.75;3.50;;;;;;;-142.75;75.54;76893.13;5066976;28;20037;-67
2022/05/04 10:40:33;;;;;;;10.48;4.32;;;;;;;-142.75;76.93;76867.53;5065564;28;20525;-67
2022/05/04 10:43:04;;;;;;;7.13;3.50;;;;;;;-142.75;73.16;76863.59;5067220;28;20509;-67
2022/05/04 10:45:40;;;;;;;9.98;3.92;;;;;;;-142.75;74.09;76867.53;5065845;28;20387;-67
2022/05/04 10:48:18;;;;;;;11.15;3.95;;;;;;;-142.75;71.66;76832.09;5066864;28;20024;-67
2022/05/04 10:51:18;;;;;;;8.90;4.20;;;;;;;-142.75;68.34;76802.56;5066666;28;20037;-66
2022/05/04 10:53:51;;;;;;;9.13;3.63;;;;;;;-142.75;67.26;76778.97;5060587;28;20028;-67
2022/05/04 10:56:21;;;;;;;11.68;4.30;;;;;;;-142.75;66.62;76743.53;5066210;28;20143;-67
2022/05/04 10:58:56;;;;;;;9.80;4.20;;;;;;;-142.75;70.12;76769.13;5066870;28;20024;-67
2022/05/04 11:01:39;;;;;;;7.10;3.55;;;;;;;-142.75;66.92;76755.34;5067143;28;20086;-66
2022/05/04 11:04:15;;;;;;;10.77;4.20;;;;;;;-142.75;66.61;76769.13;5066680;28;20032;-67
2022/05/04 11:06:43;;;;;;;;;;;;;;;-142.75;66.50;76747.47;5067072;28;20024;-66
2022/05/04 11:09:32;;;;;;;12.63;4.32;;;;;;;-142.75;69.60;76692.34;5066724;28;20555;-66
2022/05/04 11:12:00;;;;;;;8.52;3.92;;;;;;;-142.75;65.65;76696.28;5065975;28;20525;-66
2022/05/04 11:14:26;;;;;;;7.15;3.22;;;;;;;-142.75;64.22;76666.75;5065110;28;20127;-67
2022/05/04 11:16:54;;;;;;;8.50;4.32;;;;;;;-142.75;66.36;76639.19;5066208;28;20029;-66
2022/05/04 11:19:23;;;;;;;11.30;3.90;;;;;;;-142.75;64.98;76682.50;5062215;28;20044;-66
2022/05/04 11:21:49;;;;;;;9.35;4.10;;;;;;;-142.75;63.76;76668.72;5060768;28;20033;-66
2022/05/04 11:24:16;;;;;;;11.48;4.50;;;;;;;-142.75;61.87;76684.47;5066242;28;20017;-66
2022/05/04 11:29:19;;;;;;;8.43;4.05;;;;;;;-142.75;61.72;76641.16;5577071;22;20052;-66
2022/05/04 11:31:54;;;;;;;8.55;4.32;;;;;;;-142.75;65.44;76641.16;5050213;28;20041;-66
2022/05/04 11:34:24;;;;;;;7.30;4.20;;;;;;;-142.75;59.66;76615.56;5051700;28;20048;-66
2022/05/04 11:36:52;;;;;;;8.02;4.55;;;;;;;-142.75;60.04;76491.56;5050149;28;20029;-66
2022/05/04 11:39:19;;;;;;;10.00;4.53;;;;;;;-142.75;58.35;76501.41;5055408;28;20086;-66
2022/05/04 11:41:46;;;;;;;15.95;5.13;;;;;;;-142.75;59.51;76601.78;5082859;22;20051;-67
2022/05/04 11:44:13;;;;;;;8.85;4.35;;;;;;;-142.75;62.01;76637.22;5049488;28;20021;-68
2022/05/04 11:46:39;;;;;;;7.78;3.97;;;;;;;-142.75;64.28;76692.34;5050900;28;20108;-68
2022/05/04 11:49:08;;;;;;;10.75;3.47;;;;;;;-142.75;65.50;76641.16;5051384;28;20100;-67
2022/05/04 11:51:35;;;;;;;8.57;3.85;;;;;;;-142.75;61.81;76574.22;5051792;28;20024;-67